Gould, Arkansas
Current Conditions -  °F | °C
As of 8:53 AM on Friday 19 Dec 2014 (Local Time) from KPBF Reporting Station
Overcast Overcast  
Wind Chill: 37°   Ceiling: 700
Heat Index: 42°   Visibility: 7mi
Dew Point: 39°   Wind: 8mph
Humidity: 89%   Direction: 30°NNE
Pressure: 30.27"   Gusts: NA
Location:  33.99°N, 91.56°W
Report Text: KPBF 191453Z AUTO 03007KT 7SM OVC007 06/04 A3027 RMK AO2 SLP248 T00560039 53020
Loading
Personal Weather Stations






























Interactive Weather Map New forecast layout! Learn more

10-Day Weather Forecast

Advertisements
Track Severe Weather on mobile